Time;durP1;ratioP1;P1;durP2;ratioP2;P2;SDS_P1;SDS_P2;PMS_P1;PMS_P2;Temp;Humidity;BMP_temperature;BMP_pressure;BME280_temperature;BME280_humidity;BME280_pressure;Samples;Min_cycle;Max_cycle;Signal;HPM_P1;HPM_P2
2022/04/14 00:00:46;;;;;;;2.83;2.63;;;;;;;;;;5024075;28;20306;-67
2022/04/14 00:03:34;;;;;;;2.90;2.70;;;;;;;;;;5017859;28;20224;-67
2022/04/14 00:06:21;;;;;;;2.60;2.47;;;;;;;;;;5021847;28;20838;-66
2022/04/14 00:09:08;;;;;;;3.00;2.80;;;;;;;;;;5021097;28;20204;-66
2022/04/14 00:11:55;;;;;;;3.03;2.83;;;;;;;;;;5021734;28;20312;-67
2022/04/14 00:14:42;;;;;;;2.57;2.37;;;;;;;;;;5022327;28;20840;-66
2022/04/14 00:17:32;;;;;;;2.80;2.60;;;;;;;;;;5023825;28;20219;-66
2022/04/14 00:20:20;;;;;;;3.10;2.83;;;;;;;;;;5022971;28;20291;-68
2022/04/14 00:23:07;;;;;;;2.90;2.70;;;;;;;;;;5019207;28;20224;-67
2022/04/14 00:25:54;;;;;;;2.60;2.40;;;;;;;;;;5023049;28;20630;-66
2022/04/14 00:28:41;;;;;;;3.23;2.60;;;;;;;;;;5022542;28;20724;-67
2022/04/14 00:31:28;;;;;;;2.30;2.20;;;;;;;;;;5019239;28;20799;-66
2022/04/14 00:34:15;;;;;;;2.60;2.50;;;;;;;;;;5020933;28;20685;-66
2022/04/14 00:37:03;;;;;;;2.87;2.67;;;;;;;;;;5020223;28;20266;-66
2022/04/14 00:39:51;;;;;;;2.80;2.60;;;;;;;;;;5017555;28;20314;-65
2022/04/14 00:42:38;;;;;;;3.17;2.93;;;;;;;;;;5019457;28;20222;-65
2022/04/14 00:45:25;;;;;;;2.77;2.57;;;;;;;;;;5021247;28;20201;-66
2022/04/14 00:48:13;;;;;;;2.57;2.47;;;;;;;;;;5021023;28;20288;-65
2022/04/14 00:51:01;;;;;;;2.47;2.37;;;;;;;;;;5019280;28;20233;-65
2022/04/14 00:53:49;;;;;;;3.00;2.80;;;;;;;;;;5019844;28;20262;-65
2022/04/14 00:56:36;;;;;;;2.83;2.63;;;;;;;;;;5022069;28;20335;-65
2022/04/14 00:59:23;;;;;;;2.97;2.77;;;;;;;;;;5021025;28;20799;-65
2022/04/14 01:02:10;;;;;;;2.50;2.40;;;;;;;;;;5021384;28;20279;-65
2022/04/14 01:04:58;;;;;;;2.73;2.63;;;;;;;;;;5022194;28;20262;-66
2022/04/14 01:07:45;;;;;;;2.83;2.73;;;;;;;;;;5014158;28;20236;-65
2022/04/14 01:10:35;;;;;;;2.57;2.47;;;;;;;;;;5020686;28;20665;-65
2022/04/14 01:13:22;;;;;;;3.50;2.80;;;;;;;;;;5020662;28;20266;-65
2022/04/14 01:16:09;;;;;;;3.00;2.80;;;;;;;;;;5022770;28;20309;-65
2022/04/14 01:18:56;;;;;;;2.70;2.50;;;;;;;;;;5017210;28;20295;-65
2022/04/14 01:21:52;;;;;;;2.50;2.37;;;;;;;;;;5024216;28;20319;-65
2022/04/14 01:24:40;;;;;;;3.00;2.80;;;;;;;;;;5027228;28;20204;-65
2022/04/14 01:27:28;;;;;;;3.10;2.90;;;;;;;;;;5026868;28;20244;-66
2022/04/14 01:30:16;;;;;;;3.00;2.80;;;;;;;;;;5021946;28;20295;-65
2022/04/14 01:33:03;;;;;;;2.80;2.70;;;;;;;;;;5026006;28;20237;-65
2022/04/14 01:35:50;;;;;;;2.83;2.63;;;;;;;;;;5025003;28;20577;-65
2022/04/14 01:38:38;;;;;;;2.87;2.67;;;;;;;;;;5024483;28;20209;-65
2022/04/14 01:41:26;;;;;;;2.90;2.70;;;;;;;;;;5020992;28;20594;-65
2022/04/14 01:44:13;;;;;;;3.10;2.90;;;;;;;;;;5023666;28;20352;-65
2022/04/14 01:47:00;;;;;;;2.90;2.70;;;;;;;;;;5024897;28;20287;-65
2022/04/14 01:49:47;;;;;;;3.00;2.80;;;;;;;;;;5020958;28;20236;-65
2022/04/14 01:52:34;;;;;;;2.90;2.70;;;;;;;;;;5019180;28;20236;-65
2022/04/14 01:55:21;;;;;;;3.00;2.70;;;;;;;;;;5023092;28;20231;-65
2022/04/14 01:58:09;;;;;;;2.90;2.70;;;;;;;;;;5025446;28;20255;-65
2022/04/14 02:00:56;;;;;;;2.80;2.60;;;;;;;;;;5025413;28;20665;-65
2022/04/14 02:03:43;;;;;;;2.80;2.60;;;;;;;;;;5023850;28;20249;-65
2022/04/14 02:06:30;;;;;;;2.70;2.60;;;;;;;;;;5021755;28;20228;-65
2022/04/14 02:09:17;;;;;;;2.60;2.40;;;;;;;;;;5025893;28;20209;-65
2022/04/14 02:12:05;;;;;;;2.83;2.70;;;;;;;;;;5026361;28;20301;-65
2022/04/14 02:14:54;;;;;;;2.70;2.53;;;;;;;;;;5024338;28;20851;-65
2022/04/14 02:17:41;;;;;;;3.03;2.83;;;;;;;;;;5025033;28;20531;-66
2022/04/14 02:20:28;;;;;;;3.20;2.57;;;;;;;;;;5021538;28;20209;-66
2022/04/14 02:23:15;;;;;;;2.93;2.63;;;;;;;;;;5023614;28;20256;-65
2022/04/14 02:26:02;;;;;;;3.13;2.93;;;;;;;;;;5020955;28;20296;-65
2022/04/14 02:28:49;;;;;;;3.07;2.87;;;;;;;;;;5025651;28;20679;-65
2022/04/14 02:31:37;;;;;;;2.97;2.77;;;;;;;;;;5022755;28;20292;-65
2022/04/14 02:34:25;;;;;;;3.00;2.80;;;;;;;;;;5027607;28;20843;-65
2022/04/14 02:37:13;;;;;;;2.90;2.70;;;;;;;;;;5018942;28;20217;-65
2022/04/14 02:40:00;;;;;;;2.40;2.30;;;;;;;;;;5020020;28;20212;-65
2022/04/14 02:42:47;;;;;;;2.87;2.67;;;;;;;;;;5026899;28;20239;-65
2022/04/14 02:45:34;;;;;;;3.17;2.90;;;;;;;;;;5024684;28;20246;-65
2022/04/14 02:48:22;;;;;;;2.67;2.50;;;;;;;;;;5023805;28;20680;-65
2022/04/14 02:51:09;;;;;;;2.73;2.53;;;;;;;;;;5025510;28;20204;-65
2022/04/14 02:53:57;;;;;;;2.80;2.63;;;;;;;;;;5021414;28;20231;-65
2022/04/14 02:56:44;;;;;;;2.80;2.67;;;;;;;;;;5023801;28;20244;-65
2022/04/14 02:59:30;;;;;;;3.33;3.03;;;;;;;;;;5024835;28;20775;-65
2022/04/14 03:02:17;;;;;;;3.20;2.90;;;;;;;;;;5023294;28;20255;-65
2022/04/14 03:05:07;;;;;;;2.80;2.60;;;;;;;;;;5024176;28;20692;-65
2022/04/14 03:07:54;;;;;;;2.67;2.50;;;;;;;;;;5024013;28;20264;-65
2022/04/14 03:10:41;;;;;;;2.73;2.53;;;;;;;;;;5022664;28;20720;-65
2022/04/14 03:13:28;;;;;;;3.00;2.80;;;;;;;;;;5022484;28;20716;-65
2022/04/14 03:16:15;;;;;;;2.67;2.57;;;;;;;;;;5022803;28;20243;-65
2022/04/14 03:19:01;;;;;;;3.60;3.30;;;;;;;;;;5025555;28;20239;-65
2022/04/14 03:21:50;;;;;;;3.10;2.90;;;;;;;;;;5024335;28;20703;-65
2022/04/14 03:24:37;;;;;;;3.37;3.03;;;;;;;;;;5023873;28;20296;-65
2022/04/14 03:27:24;;;;;;;3.03;2.83;;;;;;;;;;5020449;28;20205;-65
2022/04/14 03:30:11;;;;;;;3.30;3.10;;;;;;;;;;5022076;28;20290;-65
2022/04/14 03:32:58;;;;;;;3.07;2.80;;;;;;;;;;5022889;28;20224;-65
2022/04/14 03:35:45;;;;;;;3.57;3.37;;;;;;;;;;5018029;28;20212;-65
2022/04/14 03:38:34;;;;;;;3.30;3.07;;;;;;;;;;5022871;28;20291;-65
2022/04/14 03:41:21;;;;;;;3.50;3.30;;;;;;;;;;5024500;28;20689;-65
2022/04/14 03:44:07;;;;;;;3.50;3.20;;;;;;;;;;5017880;28;20721;-65
2022/04/14 03:46:54;;;;;;;4.37;3.97;;;;;;;;;;5022531;28;20837;-65
2022/04/14 03:49:41;;;;;;;5.97;4.10;;;;;;;;;;5024420;28;20335;-65
2022/04/14 03:52:28;;;;;;;4.93;4.17;;;;;;;;;;5024097;28;20295;-66
2022/04/14 03:55:16;;;;;;;4.23;3.93;;;;;;;;;;5017986;28;20351;-66
2022/04/14 03:58:03;;;;;;;4.40;4.10;;;;;;;;;;5023330;28;20213;-65
2022/04/14 04:00:51;;;;;;;5.23;4.33;;;;;;;;;;5021063;28;20220;-65
2022/04/14 04:03:38;;;;;;;4.83;4.43;;;;;;;;;;5024045;28;20670;-65
2022/04/14 04:06:25;;;;;;;4.90;4.50;;;;;;;;;;5023945;28;20242;-65
2022/04/14 04:09:12;;;;;;;5.57;5.07;;;;;;;;;;5019831;28;20584;-65
2022/04/14 04:12:00;;;;;;;4.97;4.57;;;;;;;;;;5022213;28;20197;-65
2022/04/14 04:14:48;;;;;;;5.40;4.90;;;;;;;;;;5018074;28;20226;-65
2022/04/14 04:17:35;;;;;;;4.90;4.50;;;;;;;;;;5021778;28;20209;-65
2022/04/14 04:20:22;;;;;;;5.70;5.17;;;;;;;;;;5025073;28;20293;-65
2022/04/14 04:23:09;;;;;;;5.97;5.37;;;;;;;;;;5016777;28;20605;-65
2022/04/14 04:25:56;;;;;;;6.30;5.70;;;;;;;;;;5022727;28;20200;-65
2022/04/14 04:28:45;;;;;;;7.00;5.83;;;;;;;;;;5023939;28;20239;-65
2022/04/14 04:31:31;;;;;;;6.40;5.77;;;;;;;;;;5019812;28;20310;-66
2022/04/14 04:34:18;;;;;;;6.17;5.63;;;;;;;;;;5014832;28;20270;-65
2022/04/14 04:37:06;;;;;;;7.27;6.27;;;;;;;;;;5019313;28;20977;-65
2022/04/14 04:39:52;;;;;;;6.90;6.30;;;;;;;;;;5015301;28;20208;-65
2022/04/14 04:42:39;;;;;;;8.13;6.73;;;;;;;;;;5020756;28;20204;-65
2022/04/14 04:45:28;;;;;;;7.03;6.40;;;;;;;;;;5020128;28;20241;-68
2022/04/14 04:48:15;;;;;;;7.40;6.70;;;;;;;;;;5021905;28;20287;-66
2022/04/14 04:51:01;;;;;;;8.57;7.27;;;;;;;;;;5022297;28;20218;-65
2022/04/14 04:53:48;;;;;;;7.77;6.67;;;;;;;;;;5018748;28;20236;-65
2022/04/14 04:56:35;;;;;;;8.37;7.03;;;;;;;;;;5018183;28;20687;-65
2022/04/14 04:59:22;;;;;;;8.57;7.23;;;;;;;;;;5020214;28;20247;-65
2022/04/14 05:02:11;;;;;;;7.50;6.80;;;;;;;;;;5021760;28;20213;-65
2022/04/14 05:04:58;;;;;;;10.17;7.97;;;;;;;;;;5023050;28;20569;-65
2022/04/14 05:07:45;;;;;;;9.30;7.53;;;;;;;;;;5021504;28;20295;-65
2022/04/14 05:10:33;;;;;;;11.37;8.17;;;;;;;;;;5023922;28;20686;-65
2022/04/14 05:13:20;;;;;;;9.83;7.93;;;;;;;;;;5020139;28;20697;-65
2022/04/14 05:16:07;;;;;;;9.93;7.80;;;;;;;;;;5022625;28;20256;-65
2022/04/14 05:18:55;;;;;;;10.60;7.97;;;;;;;;;;5014653;28;20223;-65
2022/04/14 05:21:42;;;;;;;10.07;8.57;;;;;;;;;;5020796;28;20260;-65
2022/04/14 05:24:30;;;;;;;9.40;8.37;;;;;;;;;;5019070;28;21046;-65
2022/04/14 05:27:17;;;;;;;9.60;7.77;;;;;;;;;;5023367;28;20665;-65
2022/04/14 05:30:05;;;;;;;9.73;8.00;;;;;;;;;;5018037;28;20580;-65
2022/04/14 05:32:52;;;;;;;8.83;7.90;;;;;;;;;;5017329;28;20229;-65
2022/04/14 05:35:43;;;;;;;9.23;8.37;;;;;;;;;;5021649;28;20201;-69
2022/04/14 05:38:30;;;;;;;9.60;8.27;;;;;;;;;;5022453;28;20212;-66
2022/04/14 05:41:16;;;;;;;9.37;8.00;;;;;;;;;;5015584;28;20272;-65
2022/04/14 05:44:04;;;;;;;9.50;8.50;;;;;;;;;;5017796;28;20400;-65
2022/04/14 05:46:51;;;;;;;10.90;8.70;;;;;;;;;;5019839;28;20580;-65
2022/04/14 05:49:38;;;;;;;9.97;8.50;;;;;;;;;;5021612;28;20202;-65
2022/04/14 05:52:26;;;;;;;9.67;8.67;;;;;;;;;;5017139;28;20292;-65
2022/04/14 05:55:13;;;;;;;10.20;8.57;;;;;;;;;;5021654;28;20269;-65
2022/04/14 05:58:00;;;;;;;10.23;8.87;;;;;;;;;;5023877;28;20220;-65
2022/04/14 06:00:47;;;;;;;10.50;8.73;;;;;;;;;;5017434;28;20256;-65
2022/04/14 06:03:34;;;;;;;10.27;8.90;;;;;;;;;;5021289;28;20292;-65
2022/04/14 06:06:21;;;;;;;9.63;8.63;;;;;;;;;;5019141;28;20217;-65
2022/04/14 06:09:11;;;;;;;10.53;9.40;;;;;;;;;;5016969;28;20693;-65
2022/04/14 06:11:59;;;;;;;10.10;9.00;;;;;;;;;;5022904;28;20210;-65
2022/04/14 06:14:46;;;;;;;10.27;9.17;;;;;;;;;;5021658;28;20592;-65
2022/04/14 06:17:33;;;;;;;10.50;9.40;;;;;;;;;;5023491;28;20291;-65
2022/04/14 06:20:20;;;;;;;10.37;9.20;;;;;;;;;;5027183;28;20685;-65
2022/04/14 06:23:08;;;;;;;9.97;8.97;;;;;;;;;;5023410;28;20208;-65
2022/04/14 06:25:56;;;;;;;9.83;8.83;;;;;;;;;;5024411;28;20218;-66
2022/04/14 06:28:46;;;;;;;13.07;9.97;;;;;;;;;;5020756;28;20213;-65
2022/04/14 06:31:35;;;;;;;10.13;9.07;;;;;;;;;;5020538;28;20347;-66
2022/04/14 06:34:22;;;;;;;10.50;9.33;;;;;;;;;;5024951;28;20251;-65
2022/04/14 06:37:08;;;;;;;9.93;8.93;;;;;;;;;;5021405;28;20205;-65
2022/04/14 06:39:55;;;;;;;9.37;8.40;;;;;;;;;;5017496;28;20246;-65
2022/04/14 06:42:44;;;;;;;11.47;8.80;;;;;;;;;;5023176;28;20231;-66
2022/04/14 06:45:31;;;;;;;9.17;8.27;;;;;;;;;;5022833;28;20205;-66
2022/04/14 06:48:18;;;;;;;10.00;8.50;;;;;;;;;;5023891;28;20308;-65
2022/04/14 06:51:05;;;;;;;9.37;8.33;;;;;;;;;;5023824;28;20695;-65
2022/04/14 06:53:52;;;;;;;9.17;8.10;;;;;;;;;;5022366;28;20367;-65
2022/04/14 06:56:39;;;;;;;8.77;7.90;;;;;;;;;;5021522;28;20239;-65
2022/04/14 06:59:28;;;;;;;10.33;8.10;;;;;;;;;;5023628;28;20282;-65
2022/04/14 07:02:15;;;;;;;9.07;8.13;;;;;;;;;;5025998;28;20736;-65
2022/04/14 07:05:02;;;;;;;9.00;8.10;;;;;;;;;;5024879;28;20798;-65
2022/04/14 07:07:50;;;;;;;8.37;7.57;;;;;;;;;;5022273;28;20235;-65
2022/04/14 07:10:37;;;;;;;9.07;8.20;;;;;;;;;;5024545;28;20367;-65
2022/04/14 07:13:24;;;;;;;8.73;7.93;;;;;;;;;;5025149;28;20607;-65
2022/04/14 07:16:12;;;;;;;9.13;8.23;;;;;;;;;;5023853;28;20208;-65
2022/04/14 07:18:59;;;;;;;8.90;8.10;;;;;;;;;;5022479;28;20212;-66
2022/04/14 07:21:46;;;;;;;8.53;7.73;;;;;;;;;;5028639;28;20219;-65
2022/04/14 07:24:33;;;;;;;7.63;6.97;;;;;;;;;;5024286;28;20215;-65
2022/04/14 07:27:21;;;;;;;8.20;7.50;;;;;;;;;;5020311;28;20245;-65
2022/04/14 07:30:09;;;;;;;8.50;7.60;;;;;;;;;;5023864;28;20215;-65
2022/04/14 07:32:57;;;;;;;7.80;7.20;;;;;;;;;;5018783;28;20216;-65
2022/04/14 07:35:45;;;;;;;7.57;6.87;;;;;;;;;;5024747;28;20220;-65
2022/04/14 07:38:32;;;;;;;7.97;7.27;;;;;;;;;;5022306;28;20243;-65
2022/04/14 07:41:19;;;;;;;7.80;7.00;;;;;;;;;;5021816;28;20239;-65
2022/04/14 07:44:06;;;;;;;7.83;7.17;;;;;;;;;;5022058;28;20258;-65
2022/04/14 07:46:53;;;;;;;7.17;6.57;;;;;;;;;;5022979;28;20276;-65
2022/04/14 07:49:41;;;;;;;7.33;6.73;;;;;;;;;;5022343;28;20213;-66
2022/04/14 07:52:28;;;;;;;7.17;6.57;;;;;;;;;;5020246;28;20790;-66
2022/04/14 07:55:20;;;;;;;6.77;6.17;;;;;;;;;;5020782;28;20331;-66
2022/04/14 07:58:07;;;;;;;6.30;5.80;;;;;;;;;;5026386;28;20266;-66
2022/04/14 08:00:55;;;;;;;6.67;6.00;;;;;;;;;;5021881;28;20213;-67
2022/04/14 08:03:42;;;;;;;6.00;5.60;;;;;;;;;;5021460;28;20210;-67
2022/04/14 08:06:31;;;;;;;6.47;6.07;;;;;;;;;;5020641;28;20691;-66
2022/04/14 08:09:18;;;;;;;6.23;5.73;;;;;;;;;;5019401;28;20237;-66
2022/04/14 08:12:06;;;;;;;5.90;5.40;;;;;;;;;;5021877;28;20224;-66
2022/04/14 08:14:52;;;;;;;5.53;5.13;;;;;;;;;;5026196;28;20309;-66
2022/04/14 08:17:41;;;;;;;5.60;5.10;;;;;;;;;;5020202;28;20288;-66
2022/04/14 08:20:28;;;;;;;5.33;5.03;;;;;;;;;;5023096;28;20213;-66
2022/04/14 08:23:17;;;;;;;5.30;4.90;;;;;;;;;;5018628;28;20631;-66
2022/04/14 08:26:04;;;;;;;4.60;4.30;;;;;;;;;;5019099;28;20297;-66
2022/04/14 08:28:53;;;;;;;5.53;5.03;;;;;;;;;;5020031;28;20625;-66
2022/04/14 08:31:40;;;;;;;4.97;4.57;;;;;;;;;;5021692;28;20662;-66
2022/04/14 08:34:27;;;;;;;5.07;4.57;;;;;;;;;;5020006;28;20698;-66
2022/04/14 08:37:14;;;;;;;4.53;4.23;;;;;;;;;;5021060;28;20241;-66
2022/04/14 08:40:06;;;;;;;4.60;4.30;;;;;;;;;;5016649;28;20207;-66
2022/04/14 08:42:55;;;;;;;4.27;3.97;;;;;;;;;;5023151;28;20667;-66
2022/04/14 08:45:45;;;;;;;4.17;3.87;;;;;;;;;;5019678;28;20680;-66
2022/04/14 08:48:35;;;;;;;4.40;4.10;;;;;;;;;;5021617;28;20229;-66
2022/04/14 08:51:22;;;;;;;3.83;3.63;;;;;;;;;;5019738;28;20231;-66
2022/04/14 08:54:13;;;;;;;4.10;3.80;;;;;;;;;;5021078;28;20275;-66
2022/04/14 08:57:02;;;;;;;3.80;3.60;;;;;;;;;;5018601;28;20211;-66
2022/04/14 08:59:51;;;;;;;4.17;3.87;;;;;;;;;;5021264;28;20312;-66
2022/04/14 09:02:39;;;;;;;3.50;3.30;;;;;;;;;;5021282;28;20673;-66
2022/04/14 09:05:26;;;;;;;3.43;3.23;;;;;;;;;;5018411;28;20217;-66
2022/04/14 09:08:13;;;;;;;3.40;3.20;;;;;;;;;;5018683;28;20215;-65
2022/04/14 09:11:00;;;;;;;3.80;3.60;;;;;;;;;;5023384;28;20281;-66
2022/04/14 09:13:48;;;;;;;3.23;3.03;;;;;;;;;;5018674;28;20246;-66
2022/04/14 09:16:36;;;;;;;3.47;3.27;;;;;;;;;;5021899;28;20234;-66
2022/04/14 09:19:26;;;;;;;3.27;3.07;;;;;;;;;;5020576;28;20295;-66
2022/04/14 09:22:14;;;;;;;3.20;3.00;;;;;;;;;;5019837;28;20571;-66
2022/04/14 09:25:01;;;;;;;3.30;3.10;;;;;;;;;;5021449;28;20761;-66
2022/04/14 09:27:48;;;;;;;3.27;3.07;;;;;;;;;;5017288;28;20213;-67
2022/04/14 09:30:36;;;;;;;3.20;3.00;;;;;;;;;;5020038;28;20423;-66
2022/04/14 09:33:23;;;;;;;2.83;2.73;;;;;;;;;;5021925;28;20599;-66
2022/04/14 09:36:13;;;;;;;3.23;3.03;;;;;;;;;;5019749;28;20728;-66
2022/04/14 09:39:01;;;;;;;2.77;2.67;;;;;;;;;;5021322;28;20599;-66
2022/04/14 09:41:48;;;;;;;2.80;2.70;;;;;;;;;;5022024;28;20297;-66
2022/04/14 09:44:35;;;;;;;3.00;2.90;;;;;;;;;;5018512;28;20597;-66
2022/04/14 09:47:25;;;;;;;2.97;2.77;;;;;;;;;;5024459;28;20349;-66
2022/04/14 09:50:30;;;;;;;3.17;2.97;;;;;;;;;;5026006;28;20291;-66
2022/04/14 09:53:19;;;;;;;3.00;2.80;;;;;;;;;;5020035;28;20716;-66
2022/04/14 09:56:06;;;;;;;2.93;2.83;;;;;;;;;;5027110;28;20235;-66
2022/04/14 09:58:53;;;;;;;2.70;2.60;;;;;;;;;;5023351;28;20235;-68
2022/04/14 10:01:41;;;;;;;2.80;2.70;;;;;;;;;;5024256;28;20206;-66
2022/04/14 10:04:33;;;;;;;2.90;2.80;;;;;;;;;;5022859;28;20453;-66
2022/04/14 10:07:21;;;;;;;2.60;2.50;;;;;;;;;;5024422;28;20216;-66
2022/04/14 10:10:22;;;;;;;2.63;2.53;;;;;;;;;;5024390;28;20295;-67
2022/04/14 10:13:10;;;;;;;2.40;2.30;;;;;;;;;;5024642;28;20314;-66
2022/04/14 10:15:57;;;;;;;2.40;2.30;;;;;;;;;;5022549;28;20252;-66
2022/04/14 10:18:45;;;;;;;2.50;2.40;;;;;;;;;;5021237;28;20267;-66
2022/04/14 10:21:34;;;;;;;2.60;2.40;;;;;;;;;;5026895;28;20705;-66
2022/04/14 10:24:24;;;;;;;2.40;2.30;;;;;;;;;;5017090;28;20205;-66
2022/04/14 10:27:12;;;;;;;2.37;2.27;;;;;;;;;;5020246;28;20211;-66
2022/04/14 10:29:59;;;;;;;2.30;2.20;;;;;;;;;;5022846;28;20296;-66
2022/04/14 10:32:47;;;;;;;2.60;2.50;;;;;;;;;;5021462;28;20205;-66
2022/04/14 10:35:34;;;;;;;2.27;2.17;;;;;;;;;;5021364;28;20665;-67
2022/04/14 10:38:27;;;;;;;2.30;2.20;;;;;;;;;;5024086;28;20214;-66
2022/04/14 10:41:17;;;;;;;2.47;2.37;;;;;;;;;;5026369;28;20717;-66
2022/04/14 10:44:05;;;;;;;1.97;1.90;;;;;;;;;;5025830;28;20206;-66
2022/04/14 10:46:52;;;;;;;2.00;1.90;;;;;;;;;;5020188;28;20301;-66
2022/04/14 10:49:40;;;;;;;2.23;2.13;;;;;;;;;;5022212;28;20216;-71
2022/04/14 10:52:28;;;;;;;2.20;2.10;;;;;;;;;;5026079;28;20324;-66
2022/04/14 10:55:35;;;;;;;2.20;2.10;;;;;;;;;;5024189;28;20229;-66
2022/04/14 10:58:54;;;;;;;1.83;1.77;;;;;;;;;;5023551;28;20217;-66
2022/04/14 11:02:05;;;;;;;2.10;2.00;;;;;;;;;;5023917;28;20758;-66
2022/04/14 11:04:53;;;;;;;1.90;1.90;;;;;;;;;;5022378;28;20251;-66
2022/04/14 11:07:40;;;;;;;2.10;2.00;;;;;;;;;;5023896;28;20244;-66
2022/04/14 11:10:29;;;;;;;2.10;2.07;;;;;;;;;;5025892;28;20715;-66
2022/04/14 11:13:16;;;;;;;2.17;2.07;;;;;;;;;;5026518;28;20214;-67
2022/04/14 11:16:36;;;;;;;1.90;1.80;;;;;;;;;;5021993;28;20230;-66
2022/04/14 11:19:27;;;;;;;2.07;1.97;;;;;;;;;;5029108;28;20259;-66
2022/04/14 11:22:14;;;;;;;1.83;1.80;;;;;;;;;;5025806;28;20205;-66
2022/04/14 11:25:00;;;;;;;1.70;1.70;;;;;;;;;;5021147;28;20232;-66
2022/04/14 11:28:17;;;;;;;2.00;1.90;;;;;;;;;;5017863;28;20272;-66
2022/04/14 11:31:06;;;;;;;1.87;1.77;;;;;;;;;;5021631;28;20202;-66
2022/04/14 11:33:57;;;;;;;1.93;1.83;;;;;;;;;;5020365;28;20240;-66
2022/04/14 11:36:46;;;;;;;1.90;1.80;;;;;;;;;;5018417;28;20225;-66
2022/04/14 11:39:33;;;;;;;1.90;1.80;;;;;;;;;;5017973;28;20205;-66
2022/04/14 11:42:22;;;;;;;1.73;1.73;;;;;;;;;;5021027;28;20249;-66
2022/04/14 11:45:11;;;;;;;1.83;1.73;;;;;;;;;;5018531;28;20261;-66
2022/04/14 11:48:02;;;;;;;2.00;1.90;;;;;;;;;;5019868;28;20264;-66
2022/04/14 11:50:56;;;;;;;2.10;2.00;;;;;;;;;;5023004;28;20287;-66
2022/04/14 11:53:43;;;;;;;2.10;2.00;;;;;;;;;;5023078;28;20249;-66
2022/04/14 11:56:30;;;;;;;2.00;1.90;;;;;;;;;;5020634;28;20312;-66
2022/04/14 11:59:19;;;;;;;2.00;1.90;;;;;;;;;;5021810;28;20208;-66
2022/04/14 12:02:08;;;;;;;2.17;2.07;;;;;;;;;;5016468;28;20245;-66
2022/04/14 12:04:56;;;;;;;1.90;1.80;;;;;;;;;;5021824;28;20220;-66
2022/04/14 12:07:43;;;;;;;1.80;1.70;;;;;;;;;;5023766;28;20236;-66
2022/04/14 12:10:30;;;;;;;2.07;1.97;;;;;;;;;;5023207;28;20802;-66
2022/04/14 12:13:17;;;;;;;1.80;1.80;;;;;;;;;;5025884;28;20210;-66
2022/04/14 12:16:06;;;;;;;1.90;1.80;;;;;;;;;;5027996;28;20556;-66
2022/04/14 12:18:55;;;;;;;2.00;1.90;;;;;;;;;;5019044;28;20245;-67
2022/04/14 12:21:42;;;;;;;2.23;2.13;;;;;;;;;;5025562;28;20236;-66
2022/04/14 12:24:29;;;;;;;2.33;2.20;;;;;;;;;;5019581;28;20261;-66
2022/04/14 12:27:19;;;;;;;1.90;1.80;;;;;;;;;;5022665;28;20663;-66
2022/04/14 12:30:08;;;;;;;2.03;1.93;;;;;;;;;;5021780;28;20205;-66
2022/04/14 12:33:01;;;;;;;1.97;1.87;;;;;;;;;;5012988;28;20304;-66
2022/04/14 12:35:49;;;;;;;2.10;2.00;;;;;;;;;;5022301;28;20246;-66
2022/04/14 12:38:44;;;;;;;1.90;1.80;;;;;;;;;;5025235;28;20263;-66
2022/04/14 12:41:35;;;;;;;2.00;1.90;;;;;;;;;;5015925;28;20208;-66
2022/04/14 12:44:22;;;;;;;1.70;1.60;;;;;;;;;;5017663;28;20213;-66
2022/04/14 12:47:13;;;;;;;1.80;1.70;;;;;;;;;;5019463;28;20588;-66
2022/04/14 12:50:00;;;;;;;2.07;1.70;;;;;;;;;;5021760;28;20300;-66
2022/04/14 12:52:54;;;;;;;1.70;1.60;;;;;;;;;;5019108;28;20832;-66
2022/04/14 12:55:41;;;;;;;1.63;1.60;;;;;;;;;;5021243;28;20787;-66
2022/04/14 12:58:29;;;;;;;1.77;1.67;;;;;;;;;;5021986;28;20214;-66
2022/04/14 13:01:17;;;;;;;1.60;1.50;;;;;;;;;;5022702;28;20232;-67
2022/04/14 13:04:10;;;;;;;1.40;1.40;;;;;;;;;;5024332;28;20213;-66
2022/04/14 13:07:02;;;;;;;1.80;1.67;;;;;;;;;;5023321;28;20218;-66
2022/04/14 13:10:00;;;;;;;1.93;1.83;;;;;;;;;;5018777;28;20218;-66
2022/04/14 13:12:48;;;;;;;1.83;1.73;;;;;;;;;;5022567;28;20346;-66
2022/04/14 13:15:35;;;;;;;1.50;1.50;;;;;;;;;;5019650;28;20409;-66
2022/04/14 13:18:22;;;;;;;1.73;1.63;;;;;;;;;;5024489;28;20263;-66
2022/04/14 13:21:09;;;;;;;1.40;1.40;;;;;;;;;;5025583;28;20242;-66
2022/04/14 13:23:56;;;;;;;1.73;1.67;;;;;;;;;;5023803;28;20728;-66
2022/04/14 13:26:45;;;;;;;1.70;1.60;;;;;;;;;;5028648;28;20339;-66
2022/04/14 13:29:32;;;;;;;1.50;1.50;;;;;;;;;;5021577;28;20614;-66
2022/04/14 13:32:19;;;;;;;1.93;1.83;;;;;;;;;;5022759;28;20357;-67
2022/04/14 13:35:07;;;;;;;1.53;1.53;;;;;;;;;;5026188;28;20260;-66
2022/04/14 13:37:54;;;;;;;1.80;1.70;;;;;;;;;;5019871;28;20230;-66
2022/04/14 13:40:41;;;;;;;1.60;1.60;;;;;;;;;;5022624;28;20260;-66
2022/04/14 13:43:29;;;;;;;1.70;1.70;;;;;;;;;;5021718;28;20258;-67
2022/04/14 13:46:16;;;;;;;1.80;1.70;;;;;;;;;;5025340;28;20212;-66
2022/04/14 13:49:03;;;;;;;1.67;1.63;;;;;;;;;;5026708;28;20244;-66
2022/04/14 13:51:51;;;;;;;1.90;1.80;;;;;;;;;;5024485;28;20248;-66
2022/04/14 13:54:38;;;;;;;1.80;1.70;;;;;;;;;;5019463;28;20292;-66
2022/04/14 13:57:25;;;;;;;1.97;1.87;;;;;;;;;;5023555;28;20283;-66
2022/04/14 14:00:15;;;;;;;1.80;1.70;;;;;;;;;;5023227;28;20303;-67
2022/04/14 14:03:02;;;;;;;2.23;2.07;;;;;;;;;;5021785;28;20213;-66
2022/04/14 14:05:50;;;;;;;2.20;2.10;;;;;;;;;;5022088;28;20353;-66
2022/04/14 14:08:37;;;;;;;2.03;1.90;;;;;;;;;;5023818;28;20752;-67
2022/04/14 14:11:24;;;;;;;1.87;1.77;;;;;;;;;;5020029;28;20669;-66
2022/04/14 14:14:11;;;;;;;2.00;1.90;;;;;;;;;;5028285;28;20312;-67
2022/04/14 14:16:59;;;;;;;2.10;2.00;;;;;;;;;;5022835;28;20314;-74
2022/04/14 14:19:46;;;;;;;2.27;1.90;;;;;;;;;;5020601;28;20210;-66
2022/04/14 14:22:33;;;;;;;2.30;2.20;;;;;;;;;;5023612;28;20269;-67
2022/04/14 14:25:20;;;;;;;2.10;2.00;;;;;;;;;;5021235;28;20279;-67
2022/04/14 14:28:08;;;;;;;2.10;2.00;;;;;;;;;;5023051;28;20393;-67
2022/04/14 14:30:55;;;;;;;2.13;2.03;;;;;;;;;;5025500;28;20216;-67
2022/04/14 14:33:43;;;;;;;1.90;1.80;;;;;;;;;;5017997;28;20216;-66
2022/04/14 14:36:30;;;;;;;2.47;2.37;;;;;;;;;;5026164;28;20320;-66
2022/04/14 14:39:19;;;;;;;1.93;1.83;;;;;;;;;;5020108;28;20220;-66
2022/04/14 14:42:08;;;;;;;2.30;2.20;;;;;;;;;;5025247;28;20209;-67
2022/04/14 14:44:55;;;;;;;2.20;2.10;;;;;;;;;;5021911;28;20232;-66
2022/04/14 14:47:42;;;;;;;2.30;2.20;;;;;;;;;;5019288;28;20202;-66
2022/04/14 14:50:30;;;;;;;2.50;2.40;;;;;;;;;;5021526;28;20216;-67
2022/04/14 14:53:17;;;;;;;2.30;2.20;;;;;;;;;;5019976;28;20386;-67
2022/04/14 14:56:04;;;;;;;2.53;2.40;;;;;;;;;;5021015;28;20559;-66
2022/04/14 15:01:56;;;;;;;2.33;2.13;;;;;;;;;;5023252;28;20209;-66
2022/04/14 15:04:43;;;;;;;2.70;2.50;;;;;;;;;;5021298;28;20284;-67
2022/04/14 15:07:31;;;;;;;2.27;2.17;;;;;;;;;;5021483;28;20213;-66
2022/04/14 15:10:20;;;;;;;2.30;2.20;;;;;;;;;;5022837;28;20216;-67
2022/04/14 15:13:09;;;;;;;3.13;2.30;;;;;;;;;;5027116;28;20201;-70
2022/04/14 15:15:56;;;;;;;2.33;2.23;;;;;;;;;;5023759;28;20427;-67
2022/04/14 15:18:43;;;;;;;2.20;2.10;;;;;;;;;;5020143;28;20575;-67
2022/04/14 15:21:30;;;;;;;2.37;2.27;;;;;;;;;;5021129;28;20220;-67
2022/04/14 15:24:19;;;;;;;2.47;2.37;;;;;;;;;;5019379;28;20363;-67
2022/04/14 15:27:05;;;;;;;2.53;2.43;;;;;;;;;;5023520;28;20244;-66
2022/04/14 15:29:52;;;;;;;2.40;2.27;;;;;;;;;;5017524;28;20205;-67
2022/04/14 15:32:39;;;;;;;2.57;2.40;;;;;;;;;;5020713;28;20740;-66
2022/04/14 15:35:27;;;;;;;2.43;2.33;;;;;;;;;;5022641;28;20260;-67
2022/04/14 15:38:14;;;;;;;2.30;2.20;;;;;;;;;;5023325;28;20689;-66
2022/04/14 15:41:02;;;;;;;2.47;2.37;;;;;;;;;;5022067;28;20296;-67
2022/04/14 15:43:50;;;;;;;2.60;2.50;;;;;;;;;;5022499;28;20244;-66
2022/04/14 15:46:37;;;;;;;2.80;2.60;;;;;;;;;;5019748;28;20204;-66
2022/04/14 15:49:24;;;;;;;2.30;2.20;;;;;;;;;;5021814;28;20290;-67
2022/04/14 15:52:11;;;;;;;2.73;2.63;;;;;;;;;;5020877;28;20708;-66
2022/04/14 15:54:58;;;;;;;2.17;2.07;;;;;;;;;;5021569;28;20402;-66
2022/04/14 15:57:47;;;;;;;2.43;2.33;;;;;;;;;;5022281;28;20264;-67
2022/04/14 16:00:34;;;;;;;2.73;2.63;;;;;;;;;;5023876;28;20206;-66
2022/04/14 16:03:21;;;;;;;2.40;2.30;;;;;;;;;;5021860;28;20227;-67
2022/04/14 16:06:08;;;;;;;2.60;2.40;;;;;;;;;;5025722;28;20292;-67
2022/04/14 16:08:55;;;;;;;2.17;2.07;;;;;;;;;;5020917;28;20215;-66
2022/04/14 16:14:48;;;;;;;2.70;2.50;;;;;;;;;;5022704;28;20209;-67
2022/04/14 16:17:36;;;;;;;2.23;2.13;;;;;;;;;;5016139;28;20368;-67
2022/04/14 16:20:24;;;;;;;2.53;2.40;;;;;;;;;;5018689;28;20680;-67
2022/04/14 16:23:11;;;;;;;2.57;2.47;;;;;;;;;;5021569;28;20216;-67
2022/04/14 16:25:58;;;;;;;2.60;2.50;;;;;;;;;;5020306;28;20201;-67
2022/04/14 16:28:44;;;;;;;3.00;2.80;;;;;;;;;;5015669;28;20201;-67
2022/04/14 16:31:33;;;;;;;3.03;2.83;;;;;;;;;;5023667;28;20286;-67
2022/04/14 16:34:20;;;;;;;2.60;2.50;;;;;;;;;;5019525;28;20296;-67
2022/04/14 16:37:07;;;;;;;2.70;2.60;;;;;;;;;;5018787;28;20595;-67
2022/04/14 16:39:54;;;;;;;2.60;2.50;;;;;;;;;;5020216;28;20213;-67
2022/04/14 16:42:42;;;;;;;2.97;2.77;;;;;;;;;;5022234;28;20374;-65
2022/04/14 16:45:29;;;;;;;2.87;2.77;;;;;;;;;;5020557;28;20213;-67
2022/04/14 16:48:17;;;;;;;2.73;2.63;;;;;;;;;;5018517;28;20205;-67
2022/04/14 16:51:04;;;;;;;2.93;2.73;;;;;;;;;;5019240;28;20209;-67
2022/04/14 16:53:51;;;;;;;3.27;3.07;;;;;;;;;;5018698;28;20646;-67